Time;durP1;ratioP1;P1;durP2;ratioP2;P2;SDS_P1;SDS_P2;PMS_P1;PMS_P2;Temp;Humidity;BMP_temperature;BMP_pressure;BME280_temperature;BME280_humidity;BME280_pressure;Samples;Min_cycle;Max_cycle;Signal;HPM_P1;HPM_P2
2022/03/24 00:01:28;;;;;;;32.72;12.40;;;;;;;15.26;32.05;102691.13;5056201;28;20025;-64
2022/03/24 00:03:53;;;;;;;27.42;12.60;;;;;;;15.22;33.19;102686.91;5057526;28;20032;-63
2022/03/24 00:06:19;;;;;;;28.15;13.77;;;;;;;15.24;32.05;102692.22;5057658;28;20025;-63
2022/03/24 00:08:44;;;;;;;30.02;13.07;;;;;;;15.18;33.15;102685.44;5055963;28;20029;-64
2022/03/24 00:11:10;;;;;;;23.83;11.55;;;;;;;15.08;33.56;102687.94;5057342;28;20029;-64
2022/03/24 00:13:36;;;;;;;39.45;12.82;;;;;;;15.04;32.84;102693.69;5057496;28;20024;-63
2022/03/24 00:16:03;;;;;;;23.27;11.50;;;;;;;14.97;32.99;102690.56;5057358;28;20115;-63
2022/03/24 00:18:31;;;;;;;28.77;12.18;;;;;;;14.94;33.37;102679.13;5057212;28;20029;-64
2022/03/24 00:20:56;;;;;;;30.27;11.48;;;;;;;14.90;32.99;102678.50;5056405;28;20028;-64
2022/03/24 00:23:22;;;;;;;27.02;11.93;;;;;;;14.86;33.55;102678.81;5057159;28;20391;-64
2022/03/24 00:25:47;;;;;;;33.25;11.70;;;;;;;14.79;33.01;102688.34;5057342;28;20029;-63
2022/03/24 00:28:13;;;;;;;36.85;13.15;;;;;;;14.72;33.15;102684.34;5055629;28;20032;-63
2022/03/24 00:30:38;;;;;;;30.20;13.77;;;;;;;14.65;33.25;102683.94;5056945;28;20474;-63
2022/03/24 00:33:03;;;;;;;32.40;12.90;;;;;;;14.57;32.74;102680.94;5055607;28;20367;-64
2022/03/24 00:35:29;;;;;;;30.73;13.68;;;;;;;14.55;33.47;102681.03;5057088;28;20471;-63
2022/03/24 00:37:54;;;;;;;30.55;14.30;;;;;;;14.46;33.00;102676.28;5056834;28;20032;-64
2022/03/24 00:40:19;;;;;;;29.98;13.35;;;;;;;14.48;33.73;102687.84;5056869;28;20075;-63
2022/03/24 00:42:45;;;;;;;33.55;13.73;;;;;;;14.47;33.79;102686.09;5057020;28;20033;-63
2022/03/24 00:45:12;;;;;;;37.35;14.50;;;;;;;14.45;33.63;102685.38;5056836;28;20048;-63
2022/03/24 00:47:42;;;;;;;29.02;14.18;;;;;;;14.45;33.94;102679.97;5057047;28;20479;-63
2022/03/24 00:50:09;;;;;;;24.02;11.95;;;;;;;14.44;33.23;102674.66;5055856;28;20083;-63
2022/03/24 00:52:41;;;;;;;33.00;14.63;;;;;;;14.40;33.61;102668.66;5055539;28;20095;-63
2022/03/24 00:55:11;;;;;;;32.10;14.25;;;;;;;14.41;34.18;102675.75;5056788;28;20036;-63
2022/03/24 00:57:36;;;;;;;31.90;15.32;;;;;;;14.37;34.02;102674.25;5055556;28;20021;-64
2022/03/24 01:00:02;;;;;;;32.50;13.48;;;;;;;14.33;33.13;102677.25;5056317;28;20505;-63
2022/03/24 01:02:28;;;;;;;31.80;13.30;;;;;;;14.29;33.20;102675.75;5056307;28;20024;-63
2022/03/24 01:04:55;;;;;;;29.38;13.15;;;;;;;14.21;33.42;102668.16;5056901;28;20017;-63
2022/03/24 01:07:20;;;;;;;30.40;14.40;;;;;;;14.19;33.60;102674.63;5056463;28;20025;-63
2022/03/24 01:09:46;;;;;;;32.83;14.35;;;;;;;14.13;34.31;102678.63;5054875;28;20120;-63
2022/03/24 01:12:13;;;;;;;28.02;12.40;;;;;;;14.03;34.13;102669.47;5055925;28;20608;-63
2022/03/24 01:14:39;;;;;;;29.35;12.55;;;;;;;14.05;33.70;102678.28;5055971;28;20103;-63
2022/03/24 01:17:07;;;;;;;37.08;14.65;;;;;;;14.02;34.34;102681.19;5056428;28;20048;-63
2022/03/24 01:19:32;;;;;;;30.45;14.05;;;;;;;13.97;33.83;102672.56;5054931;28;20051;-63
2022/03/24 01:21:58;;;;;;;36.40;13.65;;;;;;;13.95;34.09;102669.13;5056168;28;20025;-63
2022/03/24 01:24:24;;;;;;;31.13;12.85;;;;;;;13.97;33.98;102676.13;5056115;28;20021;-63
2022/03/24 01:26:49;;;;;;;31.60;13.80;;;;;;;13.96;34.32;102676.22;5054929;28;20035;-63
2022/03/24 01:29:15;;;;;;;35.85;14.65;;;;;;;13.94;34.78;102670.09;5054712;28;20110;-63
2022/03/24 01:31:42;;;;;;;31.63;13.65;;;;;;;13.94;33.96;102675.47;5056323;28;20025;-63
2022/03/24 01:34:09;;;;;;;33.65;12.95;;;;;;;13.92;34.26;102674.72;5054465;28;20017;-63
2022/03/24 01:36:35;;;;;;;31.38;13.30;;;;;;;13.87;33.52;102663.41;5054769;28;20390;-61
2022/03/24 01:39:00;;;;;;;32.08;12.57;;;;;;;13.84;34.57;102658.25;5055970;28;20021;-62
2022/03/24 01:41:25;;;;;;;33.67;13.75;;;;;;;13.82;34.03;102662.84;5054348;28;20414;-63
2022/03/24 01:43:51;;;;;;;32.05;12.60;;;;;;;13.79;34.45;102660.38;5055947;28;20067;-63
2022/03/24 01:46:21;;;;;;;33.08;13.70;;;;;;;13.75;34.57;102664.25;5054295;28;20025;-63
2022/03/24 01:48:47;;;;;;;37.33;14.48;;;;;;;13.68;34.51;102662.94;5054364;28;20032;-63
2022/03/24 01:51:13;;;;;;;33.47;14.02;;;;;;;13.66;34.44;102660.34;5053989;28;20032;-63
2022/03/24 01:53:39;;;;;;;32.53;13.05;;;;;;;13.63;34.08;102660.56;5054959;28;20049;-63
2022/03/24 01:56:04;;;;;;;31.35;13.48;;;;;;;13.59;34.81;102658.19;5055281;28;20077;-62
2022/03/24 01:58:29;;;;;;;31.63;14.68;;;;;;;13.45;34.59;102634.00;5055206;28;20075;-63
2022/03/24 02:01:00;;;;;;;34.08;14.50;;;;;;;13.47;34.37;102641.03;5054977;28;20489;-63
2022/03/24 02:03:26;;;;;;;36.78;13.48;;;;;;;13.46;34.59;102646.50;5054874;28;20139;-63
2022/03/24 02:05:51;;;;;;;41.35;14.60;;;;;;;13.43;34.46;102652.09;5053313;28;20491;-64
2022/03/24 02:08:16;;;;;;;39.50;15.02;;;;;;;13.39;34.27;102641.53;5054789;28;20036;-63
2022/03/24 02:10:42;;;;;;;43.08;14.50;;;;;;;13.35;34.79;102650.78;5054973;28;20029;-63
2022/03/24 02:13:09;;;;;;;35.00;14.90;;;;;;;13.34;34.46;102648.19;5054646;28;20387;-63
2022/03/24 02:15:34;;;;;;;35.53;14.27;;;;;;;13.29;35.41;102639.53;5053637;28;20534;-62
2022/03/24 02:18:00;;;;;;;30.67;13.32;;;;;;;13.28;34.82;102644.09;5054795;28;20027;-63
2022/03/24 02:20:28;;;;;;;38.78;14.60;;;;;;;13.24;35.14;102639.88;5053424;28;20502;-63
2022/03/24 02:22:53;;;;;;;34.47;14.60;;;;;;;13.25;34.94;102655.06;5053262;28;20430;-63
2022/03/24 02:25:19;;;;;;;30.30;13.60;;;;;;;13.16;34.51;102638.66;5053423;28;20059;-63
2022/03/24 02:27:49;;;;;;;39.17;15.95;;;;;;;13.21;34.74;102648.13;5054682;28;20060;-63
2022/03/24 02:30:14;;;;;;;34.65;15.27;;;;;;;13.19;34.47;102641.13;5054496;28;20427;-63
2022/03/24 02:32:40;;;;;;;38.70;14.27;;;;;;;13.17;35.00;102649.31;5054550;28;20096;-63
2022/03/24 02:35:06;;;;;;;39.38;14.68;;;;;;;13.13;35.66;102650.47;5036836;28;20037;-63
2022/03/24 02:37:31;;;;;;;38.25;13.98;;;;;;;13.09;34.79;102648.94;5054552;28;20426;-62
2022/03/24 02:39:59;;;;;;;32.45;13.50;;;;;;;13.07;35.28;102645.50;5053341;28;20039;-62
2022/03/24 02:42:26;;;;;;;35.22;15.57;;;;;;;13.04;35.24;102640.28;5055166;28;20130;-62
2022/03/24 02:44:57;;;;;;;32.75;14.15;;;;;;;13.00;35.08;102654.91;5054063;28;20025;-63
2022/03/24 02:47:23;;;;;;;31.50;14.38;;;;;;;12.99;34.84;102649.59;5053032;28;20029;-63
2022/03/24 02:49:50;;;;;;;36.75;14.15;;;;;;;12.97;35.16;102641.66;5053040;28;20033;-63
2022/03/24 02:52:16;;;;;;;34.00;13.13;;;;;;;12.93;35.23;102648.19;5054455;28;20108;-63
2022/03/24 02:54:42;;;;;;;34.63;12.98;;;;;;;12.93;35.49;102653.56;5053726;28;20049;-63
2022/03/24 02:57:08;;;;;;;30.85;12.52;;;;;;;12.88;35.10;102653.00;5054286;28;20032;-63
2022/03/24 02:59:34;;;;;;;32.85;12.90;;;;;;;12.89;35.72;102649.38;5036430;28;20029;-61
2022/03/24 03:02:02;;;;;;;34.30;14.13;;;;;;;12.87;35.72;102653.13;5054684;28;20089;-61
2022/03/24 03:04:29;;;;;;;38.28;14.02;;;;;;;12.83;36.08;102658.69;5036749;28;20497;-61
2022/03/24 03:06:55;;;;;;;29.02;13.50;;;;;;;12.85;35.91;102662.13;5054273;28;20440;-62
2022/03/24 03:09:21;;;;;;;30.05;13.77;;;;;;;12.85;35.68;102655.88;5053951;28;20063;-63
2022/03/24 03:11:47;;;;;;;27.60;12.95;;;;;;;12.85;35.40;102655.88;5035956;28;20032;-63
2022/03/24 03:14:14;;;;;;;30.60;13.75;;;;;;;12.82;34.91;102651.56;5052419;28;20433;-61
2022/03/24 03:16:42;;;;;;;38.10;13.13;;;;;;;12.79;35.73;102646.38;5054077;28;20032;-61
2022/03/24 03:19:08;;;;;;;27.02;13.10;;;;;;;12.77;35.72;102648.31;5052703;28;20479;-63
2022/03/24 03:21:36;;;;;;;33.95;14.00;;;;;;;12.76;35.76;102656.47;5053701;28;20025;-61
2022/03/24 03:24:02;;;;;;;29.38;13.40;;;;;;;12.74;35.98;102658.41;5053870;28;20040;-61
2022/03/24 03:26:28;;;;;;;28.08;12.68;;;;;;;12.68;35.64;102642.66;5053962;28;20029;-61
2022/03/24 03:28:54;;;;;;;25.67;11.45;;;;;;;12.67;35.50;102652.53;5053654;28;20078;-61
2022/03/24 03:31:20;;;;;;;30.17;12.85;;;;;;;12.65;36.36;102650.91;5052429;28;20029;-61
2022/03/24 03:33:45;;;;;;;25.85;12.57;;;;;;;12.64;36.10;102658.16;5053586;28;20042;-62
2022/03/24 03:36:11;;;;;;;25.95;12.77;;;;;;;12.62;35.99;102651.97;5053773;28;20028;-63
2022/03/24 03:38:36;;;;;;;29.65;13.35;;;;;;;12.62;36.72;102661.88;5053459;28;20029;-63
2022/03/24 03:41:02;;;;;;;30.63;12.98;;;;;;;12.57;36.30;102653.22;5053386;28;20497;-63
2022/03/24 03:43:29;;;;;;;29.67;13.45;;;;;;;12.59;35.83;102654.88;5053379;28;20029;-61
2022/03/24 03:45:54;;;;;;;26.42;12.00;;;;;;;12.57;35.93;102647.84;5053696;28;20025;-60
2022/03/24 03:48:20;;;;;;;20.83;10.02;;;;;;;12.54;36.21;102656.13;5053705;28;20533;-61
2022/03/24 03:50:45;;;;;;;23.20;10.95;;;;;;;12.51;36.69;102656.31;5053984;28;20036;-61
2022/03/24 03:53:11;;;;;;;31.20;12.50;;;;;;;12.45;36.63;102654.88;5053357;28;20625;-61
2022/03/24 03:55:38;;;;;;;21.27;11.00;;;;;;;12.46;37.03;102653.91;5053535;28;20032;-60
2022/03/24 03:58:04;;;;;;;31.65;12.18;;;;;;;12.43;36.61;102654.09;5053323;28;20037;-61
2022/03/24 04:03:14;;;;;;;29.25;11.75;;;;;;;12.38;36.93;102661.59;5053196;28;20502;-61
2022/03/24 04:05:39;;;;;;;26.08;11.55;;;;;;;12.35;36.34;102656.41;5052273;28;20025;-61
2022/03/24 04:08:07;;;;;;;28.10;12.13;;;;;;;12.37;36.22;102659.03;5053214;28;20036;-61
2022/03/24 04:10:33;;;;;;;23.27;11.15;;;;;;;12.35;36.37;102660.91;5052104;28;20033;-61
2022/03/24 04:12:58;;;;;;;28.23;12.27;;;;;;;12.34;36.52;102664.59;5035651;28;20481;-61
2022/03/24 04:15:24;;;;;;;24.40;12.43;;;;;;;12.33;36.61;102662.84;5053328;28;20109;-61
2022/03/24 04:17:53;;;;;;;28.52;11.70;;;;;;;12.30;36.80;102668.41;5052062;28;20053;-61
2022/03/24 04:20:21;;;;;;;22.83;11.68;;;;;;;12.24;36.59;102657.09;5053185;28;20037;-61
2022/03/24 04:22:50;;;;;;;25.48;11.10;;;;;;;12.23;36.48;102663.41;5053398;28;20052;-61
2022/03/24 04:25:20;;;;;;;26.67;11.75;;;;;;;12.23;36.63;102668.78;5052290;28;20028;-60
2022/03/24 04:27:46;;;;;;;34.30;12.52;;;;;;;12.19;36.55;102656.53;5055070;28;20395;-61
2022/03/24 04:30:12;;;;;;;26.98;12.32;;;;;;;12.26;36.72;102670.41;5056968;28;20086;-60
2022/03/24 04:32:38;;;;;;;31.10;12.48;;;;;;;12.27;37.00;102667.66;5055536;28;20063;-61
2022/03/24 04:35:05;;;;;;;24.13;12.93;;;;;;;12.21;36.86;102653.72;5055435;28;20029;-61
2022/03/24 04:37:30;;;;;;;32.72;12.55;;;;;;;12.26;36.79;102671.28;5055299;28;20025;-61
2022/03/24 04:39:56;;;;;;;25.88;11.15;;;;;;;12.21;36.89;102662.66;5056633;28;20033;-60
2022/03/24 04:42:21;;;;;;;28.73;11.90;;;;;;;12.18;36.76;102659.28;5055568;28;20082;-61
2022/03/24 04:44:46;;;;;;;32.35;11.05;;;;;;;12.17;36.38;102658.41;5056349;28;20040;-61
2022/03/24 04:47:11;;;;;;;25.20;11.57;;;;;;;12.15;37.04;102660.34;5056406;28;20047;-61
2022/03/24 04:49:37;;;;;;;26.55;11.20;;;;;;;12.12;36.53;102665.91;5056815;28;20037;-61
2022/03/24 04:52:03;;;;;;;26.10;12.38;;;;;;;12.10;37.03;102667.81;5054966;28;20028;-60
2022/03/24 04:54:29;;;;;;;29.30;11.70;;;;;;;12.07;37.08;102665.31;5054907;28;20052;-60
2022/03/24 04:56:54;;;;;;;32.15;13.38;;;;;;;12.05;36.68;102659.19;5056402;28;20065;-61
2022/03/24 04:59:20;;;;;;;33.80;11.88;;;;;;;12.03;36.93;102663.75;5055083;28;20398;-61
2022/03/24 05:01:46;;;;;;;35.90;11.55;;;;;;;12.01;37.43;102665.69;5054958;28;20468;-61
2022/03/24 05:04:12;;;;;;;24.88;12.32;;;;;;;12.00;36.72;102661.28;5055971;28;20081;-61
2022/03/24 05:06:37;;;;;;;24.90;11.85;;;;;;;11.99;37.01;102664.06;5056025;28;20033;-61
2022/03/24 05:09:02;;;;;;;27.08;11.40;;;;;;;11.92;37.24;102657.34;5055870;28;20096;-60
2022/03/24 05:11:28;;;;;;;31.92;11.95;;;;;;;11.94;36.50;102661.66;5055909;28;20036;-61
2022/03/24 05:13:53;;;;;;;29.40;11.10;;;;;;;11.92;37.08;102647.44;5055992;28;20036;-61
2022/03/24 05:16:19;;;;;;;28.60;12.55;;;;;;;11.99;37.45;102664.94;5038092;28;20475;-61
2022/03/24 05:18:45;;;;;;;25.50;12.02;;;;;;;12.01;37.06;102659.44;5055719;28;20026;-60
2022/03/24 05:21:11;;;;;;;30.90;12.95;;;;;;;11.99;37.35;102670.28;5055969;28;20025;-60
2022/03/24 05:23:36;;;;;;;26.58;10.98;;;;;;;12.01;37.94;102668.38;5055892;28;20021;-61
2022/03/24 05:26:02;;;;;;;24.70;11.75;;;;;;;12.02;37.26;102664.75;5055746;28;20529;-61
2022/03/24 05:28:27;;;;;;;27.52;11.68;;;;;;;12.05;37.58;102661.88;5054347;28;20051;-61
2022/03/24 05:30:53;;;;;;;26.45;11.38;;;;;;;12.02;38.19;102672.78;5055695;28;20029;-61
2022/03/24 05:33:18;;;;;;;26.27;11.32;;;;;;;12.03;37.37;102669.13;5054236;28;20082;-61
2022/03/24 05:35:44;;;;;;;25.65;11.40;;;;;;;11.99;37.24;102667.59;5055452;28;20029;-61
2022/03/24 05:38:09;;;;;;;32.45;12.52;;;;;;;12.03;37.36;102666.44;5055329;28;20482;-60
2022/03/24 05:40:37;;;;;;;30.25;12.43;;;;;;;12.05;37.66;102669.06;5055339;28;20033;-61
2022/03/24 05:43:03;;;;;;;31.55;11.93;;;;;;;12.05;37.65;102680.66;5054568;28;20060;-60
2022/03/24 05:45:29;;;;;;;28.20;11.57;;;;;;;11.99;36.97;102658.69;5054526;28;20040;-61
2022/03/24 05:47:54;;;;;;;28.73;11.93;;;;;;;12.03;37.36;102658.38;5055483;28;20071;-61
2022/03/24 05:50:19;;;;;;;24.20;11.43;;;;;;;12.03;37.67;102671.81;5055831;28;20032;-61
2022/03/24 05:52:49;;;;;;;34.17;12.07;;;;;;;12.03;37.60;102666.44;5053840;28;20486;-61
2022/03/24 05:55:16;;;;;;;36.97;13.40;;;;;;;12.02;37.31;102670.13;5055263;28;20139;-61
2022/03/24 05:57:42;;;;;;;24.95;12.52;;;;;;;11.99;37.07;102664.94;5054960;28;20033;-60
2022/03/24 06:00:07;;;;;;;32.08;10.48;;;;;;;12.05;37.53;102680.66;5053845;28;20036;-61
2022/03/24 06:02:33;;;;;;;33.55;11.95;;;;;;;12.09;37.69;102670.59;5054864;28;20055;-61
2022/03/24 06:04:59;;;;;;;27.90;12.13;;;;;;;12.13;37.55;102673.00;5054626;28;20056;-62
2022/03/24 06:07:25;;;;;;;26.70;11.80;;;;;;;12.18;37.35;102670.91;5054476;28;20458;-61
2022/03/24 06:09:50;;;;;;;27.00;10.82;;;;;;;12.23;37.48;102668.78;5055095;28;20109;-61
2022/03/24 06:12:16;;;;;;;27.70;12.07;;;;;;;12.34;37.31;102675.34;5054401;28;20028;-63
2022/03/24 06:14:41;;;;;;;22.98;11.02;;;;;;;12.47;37.88;102674.47;5053174;28;20155;-64
2022/03/24 06:17:08;;;;;;;34.97;11.77;;;;;;;12.60;37.64;102672.72;5054173;28;20028;-63
2022/03/24 06:19:35;;;;;;;29.42;11.40;;;;;;;12.69;37.53;102673.97;5054183;28;20471;-63
2022/03/24 06:22:01;;;;;;;25.45;10.82;;;;;;;12.84;37.07;102678.38;5054240;28;20074;-63
2022/03/24 06:24:27;;;;;;;24.35;10.40;;;;;;;12.95;37.01;102675.00;5054085;28;20040;-63
2022/03/24 06:26:52;;;;;;;34.65;12.75;;;;;;;13.06;37.33;102676.03;5054221;28;20029;-63
2022/03/24 06:29:19;;;;;;;27.58;12.25;;;;;;;13.22;37.37;102678.59;5054523;28;20021;-63
2022/03/24 06:31:45;;;;;;;25.52;11.30;;;;;;;13.34;37.10;102683.19;5054361;28;20378;-63
2022/03/24 06:34:10;;;;;;;26.20;11.88;;;;;;;13.52;37.51;102683.78;5053020;28;20035;-63
2022/03/24 06:36:37;;;;;;;27.85;12.00;;;;;;;13.66;37.17;102679.19;5052883;28;20048;-63
2022/03/24 06:39:02;;;;;;;27.23;12.57;;;;;;;13.76;38.42;102669.50;5054073;28;20060;-63
2022/03/24 06:41:28;;;;;;;29.92;11.88;;;;;;;13.95;37.76;102677.22;5054059;28;20052;-63
2022/03/24 06:43:57;;;;;;;25.15;12.15;;;;;;;14.12;37.91;102689.53;5054227;28;20029;-63
2022/03/24 06:46:23;;;;;;;36.25;12.35;;;;;;;14.27;37.36;102678.53;5054129;28;20087;-63
2022/03/24 06:48:48;;;;;;;28.33;12.82;;;;;;;14.43;36.90;102679.19;5053527;28;20463;-64
2022/03/24 06:51:14;;;;;;;26.80;12.10;;;;;;;14.58;37.88;102677.25;5053348;28;20047;-63
2022/03/24 06:53:39;;;;;;;33.03;12.40;;;;;;;14.75;36.90;102682.28;5052642;28;20053;-63
2022/03/24 06:56:05;;;;;;;29.77;11.68;;;;;;;14.94;37.48;102689.91;5052610;28;20036;-63
2022/03/24 06:58:30;;;;;;;26.75;12.27;;;;;;;15.12;37.57;102683.19;5053767;28;20027;-64
2022/03/24 07:00:56;;;;;;;35.63;12.27;;;;;;;15.30;37.04;102673.69;5053844;28;20064;-63
2022/03/24 07:03:21;;;;;;;26.60;12.27;;;;;;;15.47;36.50;102673.34;5053939;28;20025;-63
2022/03/24 07:05:46;;;;;;;28.92;12.23;;;;;;;15.69;37.47;102681.53;5053765;28;20527;-63
2022/03/24 07:08:12;;;;;;;32.38;12.32;;;;;;;15.89;37.16;102679.13;5054060;28;20040;-63
2022/03/24 07:10:37;;;;;;;26.80;11.63;;;;;;;16.09;37.07;102681.16;5054209;28;20028;-64
2022/03/24 07:13:03;;;;;;;29.70;11.93;;;;;;;16.30;35.88;102684.91;5053748;28;20466;-64
2022/03/24 07:15:29;;;;;;;29.92;12.10;;;;;;;16.47;37.05;102678.16;5053910;28;20110;-64
2022/03/24 07:17:54;;;;;;;30.58;13.10;;;;;;;16.69;36.03;102676.38;5054043;28;20025;-63
2022/03/24 07:20:20;;;;;;;32.80;13.38;;;;;;;16.88;35.65;102686.56;5053987;28;20188;-64
2022/03/24 07:22:45;;;;;;;36.67;14.27;;;;;;;17.03;35.68;102679.88;5052497;28;20024;-64
2022/03/24 07:25:11;;;;;;;35.53;13.15;;;;;;;17.25;36.99;102687.13;5052625;28;20029;-64
2022/03/24 07:27:37;;;;;;;29.45;11.85;;;;;;;17.47;36.32;102692.47;5053632;28;20079;-64
2022/03/24 07:30:03;;;;;;;29.25;11.85;;;;;;;17.68;36.25;102687.97;5053613;28;20024;-64
2022/03/24 07:32:29;;;;;;;40.60;13.85;;;;;;;17.88;35.54;102683.56;5052048;28;20083;-64
2022/03/24 07:34:54;;;;;;;25.48;13.05;;;;;;;18.10;35.93;102688.88;5035830;28;20029;-64
2022/03/24 07:37:20;;;;;;;33.60;13.07;;;;;;;18.28;34.89;102686.41;5052511;28;20029;-64
2022/03/24 07:39:45;;;;;;;35.05;12.77;;;;;;;18.50;35.72;102694.44;5052685;28;20437;-64
2022/03/24 07:42:10;;;;;;;26.58;12.43;;;;;;;18.69;35.14;102686.38;5053903;28;20021;-64
2022/03/24 07:44:36;;;;;;;24.45;13.02;;;;;;;18.87;34.59;102690.16;5053930;28;20074;-64
2022/03/24 07:47:02;;;;;;;25.77;12.50;;;;;;;19.06;34.72;102692.09;5053972;28;20082;-64
2022/03/24 07:49:28;;;;;;;28.50;11.88;;;;;;;19.28;35.25;102685.56;5054206;28;20029;-64
2022/03/24 07:51:54;;;;;;;32.90;11.93;;;;;;;19.51;34.90;102695.22;5053874;28;20094;-64
2022/03/24 07:54:40;;;;;;;35.00;12.27;;;;;;;19.71;34.07;102692.34;5052578;28;20048;-64
2022/03/24 07:57:05;;;;;;;31.48;13.38;;;;;;;19.94;34.55;102692.06;5052999;28;20114;-64
2022/03/24 07:59:33;;;;;;;33.85;12.35;;;;;;;20.11;34.07;102689.47;5053737;28;20495;-64
2022/03/24 08:01:59;;;;;;;32.22;12.63;;;;;;;20.33;33.74;102689.16;5056135;28;20017;-64
2022/03/24 08:04:24;;;;;;;32.95;13.63;;;;;;;20.51;33.98;102683.81;5057475;28;20040;-64
2022/03/24 08:06:49;;;;;;;36.65;13.45;;;;;;;20.75;33.52;102694.16;5057395;28;20029;-64
2022/03/24 08:09:15;;;;;;;29.45;13.30;;;;;;;20.95;34.00;102690.34;5056136;28;20108;-64
2022/03/24 08:11:41;;;;;;;28.08;13.48;;;;;;;21.16;33.79;102687.41;5055922;28;20028;-64
2022/03/24 08:14:06;;;;;;;26.55;12.63;;;;;;;21.36;33.06;102687.13;5055832;28;20021;-64
2022/03/24 08:16:31;;;;;;;33.35;13.27;;;;;;;21.56;32.81;102692.44;5056626;28;20470;-64
2022/03/24 08:18:57;;;;;;;31.67;12.82;;;;;;;21.77;32.86;102690.25;5056468;28;20495;-64
2022/03/24 08:21:22;;;;;;;30.33;13.48;;;;;;;21.99;32.87;102692.53;5056202;28;20437;-64
2022/03/24 08:23:48;;;;;;;39.92;15.23;;;;;;;22.18;32.87;102681.41;5056383;28;20367;-64
2022/03/24 08:26:14;;;;;;;31.02;13.82;;;;;;;22.40;32.61;102680.03;5056444;28;20490;-64
2022/03/24 08:28:39;;;;;;;35.72;13.93;;;;;;;22.63;32.10;102686.66;5056058;28;20025;-63
2022/03/24 08:31:04;;;;;;;34.92;14.60;;;;;;;22.81;31.85;102689.34;5054989;28;20059;-63
2022/03/24 08:33:30;;;;;;;33.90;14.05;;;;;;;23.04;32.20;102695.94;5054841;28;20021;-63
2022/03/24 08:35:55;;;;;;;36.05;14.40;;;;;;;23.19;32.09;102694.28;5056074;28;20033;-63
2022/03/24 08:38:21;;;;;;;28.77;13.82;;;;;;;23.32;31.05;102691.06;5055925;28;20025;-63
2022/03/24 08:40:47;;;;;;;32.03;15.43;;;;;;;23.44;30.96;102687.88;5056086;28;20029;-64
2022/03/24 08:43:13;;;;;;;34.38;15.40;;;;;;;23.56;31.48;102688.44;5056146;28;20028;-63
2022/03/24 08:45:38;;;;;;;28.42;15.18;;;;;;;23.66;31.10;102689.97;5055750;28;20025;-63
2022/03/24 08:48:06;;;;;;;32.08;16.50;;;;;;;23.80;30.38;102699.41;5055726;28;20029;-63
2022/03/24 08:50:32;;;;;;;37.53;17.27;;;;;;;23.98;30.60;102686.38;5054585;28;20029;-63
2022/03/24 08:52:58;;;;;;;38.22;16.85;;;;;;;24.21;30.91;102697.53;5055710;28;20033;-63
2022/03/24 08:55:23;;;;;;;33.45;16.10;;;;;;;24.42;30.53;102695.13;5055439;28;20387;-64
2022/03/24 08:57:48;;;;;;;38.35;15.82;;;;;;;24.63;29.62;102700.88;5055551;28;20021;-63
2022/03/24 09:00:17;;;;;;;32.88;16.27;;;;;;;24.84;29.40;102701.19;5055506;28;20021;-64
2022/03/24 09:02:47;;;;;;;36.55;17.35;;;;;;;25.05;29.91;102699.72;5055341;28;20021;-64
2022/03/24 09:05:13;;;;;;;37.95;17.58;;;;;;;25.27;29.68;102701.66;5054108;28;20079;-63
2022/03/24 09:07:39;;;;;;;40.95;18.27;;;;;;;25.46;29.36;102706.72;5054126;28;20028;-64
2022/03/24 09:10:06;;;;;;;40.47;18.83;;;;;;;25.65;28.51;102695.31;5055382;28;20113;-64
2022/03/24 09:12:34;;;;;;;36.70;17.35;;;;;;;25.83;28.19;102703.22;5054174;28;20036;-64
2022/03/24 09:15:00;;;;;;;36.20;18.15;;;;;;;26.00;28.12;102700.16;5054304;28;20439;-64
2022/03/24 09:17:26;;;;;;;38.67;17.00;;;;;;;26.18;28.26;102701.75;5055095;28;20031;-63
2022/03/24 09:19:51;;;;;;;43.72;18.17;;;;;;;26.38;27.96;102709.25;5055159;28;20390;-63
2022/03/24 09:22:16;;;;;;;35.10;16.77;;;;;;;26.60;27.97;102704.75;5055083;28;20100;-63
2022/03/24 09:24:42;;;;;;;31.10;17.45;;;;;;;26.81;27.46;102709.53;5055238;28;20028;-63
2022/03/24 09:27:07;;;;;;;35.53;18.27;;;;;;;27.02;27.12;102701.38;5053720;28;20472;-63
2022/03/24 09:29:33;;;;;;;41.30;17.35;;;;;;;27.22;27.57;102707.13;5054903;28;20024;-64
2022/03/24 09:31:59;;;;;;;38.97;18.52;;;;;;;27.40;27.14;102704.78;5054787;28;20021;-64
2022/03/24 09:34:25;;;;;;;39.75;18.20;;;;;;;27.57;26.98;102707.16;5054766;28;20024;-63
2022/03/24 09:36:50;;;;;;;34.83;17.98;;;;;;;27.74;26.32;102705.00;5054815;28;20032;-64
2022/03/24 09:39:16;;;;;;;36.20;20.25;;;;;;;27.90;26.20;102707.47;5054672;28;20035;-64
2022/03/24 09:41:46;;;;;;;34.53;17.55;;;;;;;28.08;26.03;102694.13;5053438;28;20025;-63
2022/03/24 09:44:11;;;;;;;36.60;18.45;;;;;;;28.35;25.76;102697.06;5054848;28;20052;-64
2022/03/24 09:46:38;;;;;;;35.20;18.70;;;;;;;28.84;24.89;102704.22;5054549;28;20471;-63
2022/03/24 09:49:03;;;;;;;37.78;19.13;;;;;;;29.57;24.51;102705.38;5053290;28;20115;-61
2022/03/24 09:51:29;;;;;;;34.90;19.15;;;;;;;31.02;23.25;102703.47;5054391;28;20107;-62
2022/03/24 09:53:55;;;;;;;36.63;20.65;;;;;;;32.84;21.21;102694.91;5054256;28;20072;-62
2022/03/24 09:56:20;;;;;;;37.35;19.65;;;;;;;32.35;22.13;102681.09;5054440;28;20439;-62
2022/03/24 09:58:49;;;;;;;34.78;18.65;;;;;;;32.01;22.21;102692.72;5054410;28;20433;-62
2022/03/24 10:01:17;;;;;;;31.20;17.90;;;;;;;31.79;22.03;102694.13;5054312;28;20395;-62
2022/03/24 10:04:05;;;;;;;30.05;17.60;;;;;;;31.73;22.28;102703.34;5054461;28;20052;-61
2022/03/24 10:06:31;;;;;;;34.10;17.27;;;;;;;31.83;22.16;102684.31;5050560;28;20028;-61
2022/03/24 10:08:57;;;;;;;33.90;18.67;;;;;;;32.04;21.55;102690.34;5054335;28;20108;-61
2022/03/24 10:11:24;;;;;;;38.03;19.85;;;;;;;32.25;21.39;102694.63;5054188;28;20108;-61
2022/03/24 10:13:54;;;;;;;33.42;19.25;;;;;;;32.42;21.15;102678.25;5054346;28;20103;-62
2022/03/24 10:16:40;;;;;;;32.10;18.42;;;;;;;32.71;21.44;102697.81;5054039;28;20062;-62
2022/03/24 10:19:18;;;;;;;34.92;19.50;;;;;;;33.05;20.84;102692.72;5054235;28;20526;-61
2022/03/24 10:21:49;;;;;;;30.52;18.65;;;;;;;33.35;19.90;102685.28;5054147;28;20028;-62
2022/03/24 10:24:20;;;;;;;35.47;19.13;;;;;;;33.64;20.09;102684.44;5053936;28;20544;-61
2022/03/24 10:27:00;;;;;;;29.45;18.02;;;;;;;33.93;19.73;102683.56;5053805;28;20482;-61
2022/03/24 10:29:27;;;;;;;34.25;18.90;;;;;;;34.17;20.29;102683.63;5052875;28;20028;-61
2022/03/24 10:31:57;;;;;;;28.08;17.55;;;;;;;34.30;19.99;102689.81;5053883;28;20386;-61
2022/03/24 10:34:30;;;;;;;27.48;18.20;;;;;;;34.50;18.58;102679.16;5052355;28;20116;-61
2022/03/24 10:36:55;;;;;;;29.77;18.15;;;;;;;34.65;19.57;102680.63;5052464;28;20083;-61
2022/03/24 10:39:26;;;;;;;28.80;17.17;;;;;;;34.75;19.49;102670.56;5053614;28;20029;-61
2022/03/24 10:41:52;;;;;;;29.58;17.58;;;;;;;34.97;18.39;102666.00;5053898;28;20360;-61
2022/03/24 10:44:18;;;;;;;31.98;17.48;;;;;;;35.16;18.89;102677.00;5053532;28;20025;-61
2022/03/24 10:46:44;;;;;;;28.17;17.98;;;;;;;35.30;18.03;102670.03;5053444;28;20029;-61
2022/03/24 10:49:23;;;;;;;26.45;16.35;;;;;;;35.36;17.72;102671.81;5053537;28;20025;-61
2022/03/24 10:51:49;;;;;;;32.03;17.48;;;;;;;35.44;17.86;102668.63;5053393;28;20021;-61
2022/03/24 10:54:16;;;;;;;31.48;18.33;;;;;;;35.58;18.50;102670.03;5052093;28;20455;-61
2022/03/24 10:56:58;;;;;;;28.13;17.67;;;;;;;35.71;17.40;102664.13;5053270;28;20042;-62
2022/03/24 10:59:26;;;;;;;29.10;16.40;;;;;;;35.81;17.82;102664.34;5053394;28;20478;-61
2022/03/24 11:01:53;;;;;;;30.77;16.98;;;;;;;35.94;17.21;102660.34;5053254;28;20020;-62
2022/03/24 11:04:19;;;;;;;30.50;18.88;;;;;;;36.00;17.12;102665.78;5053460;28;20490;-61
2022/03/24 11:06:49;;;;;;;25.25;15.90;;;;;;;36.06;17.76;102666.72;5053216;28;20036;-62
2022/03/24 11:09:21;;;;;;;27.95;17.80;;;;;;;36.14;17.07;102669.94;5053522;28;20386;-62